createdAt,value
2018-03-11T00:00:03.448Z,10.59
2018-03-11T00:02:31.835Z,10.55
2018-03-11T00:05:00.095Z,10.48
2018-03-11T00:07:28.384Z,10.51
2018-03-11T00:09:56.655Z,10.56
2018-03-11T00:12:24.944Z,10.59
2018-03-11T00:14:53.228Z,10.67
2018-03-11T00:17:21.510Z,10.69
2018-03-11T00:19:49.794Z,10.65
2018-03-11T00:22:18.079Z,10.57
2018-03-11T00:24:46.378Z,10.72
2018-03-11T00:27:15.376Z,10.68
2018-03-11T00:29:43.654Z,10.52
2018-03-11T00:32:11.934Z,10.44
2018-03-11T00:34:40.246Z,10.47
2018-03-11T00:37:08.581Z,10.48
2018-03-11T00:39:36.884Z,10.59
2018-03-11T00:42:05.835Z,10.65
2018-03-11T00:44:34.143Z,10.65
2018-03-11T00:47:02.433Z,10.63
2018-03-11T00:49:30.743Z,10.75
2018-03-11T00:51:59.166Z,10.71
2018-03-11T00:54:27.449Z,10.62
2018-03-11T00:56:55.721Z,10.58
2018-03-11T00:59:24.920Z,10.73
2018-03-11T01:01:53.194Z,10.74
2018-03-11T01:04:21.476Z,10.60
2018-03-11T01:06:49.887Z,10.58
2018-03-11T01:09:18.185Z,10.66
2018-03-11T01:11:46.453Z,10.67
2018-03-11T01:14:14.747Z,10.70
2018-03-11T01:16:43.024Z,10.73
2018-03-11T01:19:11.329Z,10.78
2018-03-11T01:21:39.612Z,10.77
2018-03-11T01:24:08.277Z,10.80
2018-03-11T01:26:36.605Z,10.86
2018-03-11T01:29:05.799Z,10.84
2018-03-11T01:31:34.055Z,10.81
2018-03-11T01:34:02.339Z,10.79
2018-03-11T01:36:30.619Z,10.78
2018-03-11T01:38:58.891Z,10.77
2018-03-11T01:41:27.207Z,10.78
2018-03-11T01:43:55.513Z,10.81
2018-03-11T01:46:23.792Z,10.89
2018-03-11T01:48:52.212Z,10.67
2018-03-11T01:51:20.505Z,10.80
2018-03-11T01:53:48.760Z,10.73
2018-03-11T01:56:17.155Z,10.79
2018-03-11T01:58:45.915Z,10.87
2018-03-11T02:01:14.200Z,10.79
2018-03-11T02:03:42.456Z,10.72
2018-03-11T02:06:10.769Z,10.76
2018-03-11T02:08:39.056Z,10.72
2018-03-11T02:11:07.378Z,10.74
2018-03-11T02:13:35.666Z,10.71
2018-03-11T02:16:03.967Z,10.74
2018-03-11T02:18:32.277Z,10.72
2018-03-11T02:21:00.527Z,10.75
2018-03-11T02:23:28.856Z,10.79
2018-03-11T02:25:57.158Z,10.83
2018-03-11T02:28:25.760Z,10.87
2018-03-11T02:30:54.045Z,10.91
2018-03-11T02:33:22.327Z,10.89
2018-03-11T02:35:50.603Z,10.90
2018-03-11T02:38:18.910Z,10.95
2018-03-11T02:40:47.203Z,10.93
2018-03-11T02:43:15.505Z,10.95
2018-03-11T02:45:43.780Z,10.99
2018-03-11T02:48:12.106Z,11.01
2018-03-11T02:50:40.335Z,11.07
2018-03-11T02:53:08.611Z,11.03
2018-03-11T02:55:36.886Z,11.02
2018-03-11T02:58:05.163Z,11.00
2018-03-11T03:00:33.441Z,11.02
2018-03-11T03:03:01.728Z,11.03
2018-03-11T03:05:30.001Z,11.08
2018-03-11T03:07:58.362Z,11.10
2018-03-11T03:10:26.607Z,11.09
2018-03-11T03:12:54.912Z,11.08
2018-03-11T03:15:23.159Z,11.04
2018-03-11T03:17:51.453Z,11.04
2018-03-11T03:20:19.711Z,11.00
2018-03-11T03:22:48.013Z,11.01
2018-03-11T03:25:16.356Z,11.08
2018-03-11T03:27:44.668Z,11.12
2018-03-11T03:30:12.972Z,11.12
2018-03-11T03:32:41.280Z,11.12
2018-03-11T03:35:09.544Z,11.11
2018-03-11T03:37:37.800Z,11.07
2018-03-11T03:40:06.076Z,11.14
2018-03-11T03:42:34.348Z,11.19
2018-03-11T03:45:02.640Z,11.18
2018-03-11T03:47:30.947Z,11.17
2018-03-11T03:49:59.235Z,11.23
2018-03-11T03:52:27.811Z,11.25
2018-03-11T03:54:56.098Z,11.14
2018-03-11T03:57:24.400Z,11.21
2018-03-11T03:59:52.701Z,11.23
2018-03-11T04:02:20.987Z,11.22
2018-03-11T04:04:49.296Z,11.23
2018-03-11T04:07:17.602Z,11.32
2018-03-11T04:09:45.894Z,11.19
2018-03-11T04:12:14.160Z,11.09
2018-03-11T04:14:42.480Z,11.11
2018-03-11T04:17:10.758Z,11.16
2018-03-11T04:19:39.072Z,11.16
2018-03-11T04:22:07.358Z,11.17
2018-03-11T04:24:35.647Z,11.19
2018-03-11T04:27:04.771Z,11.19
2018-03-11T04:29:33.082Z,11.22
2018-03-11T04:32:01.356Z,11.22
2018-03-11T04:34:29.701Z,11.28
2018-03-11T04:36:57.985Z,11.49
2018-03-11T04:39:26.265Z,11.49
2018-03-11T04:41:54.536Z,11.40
2018-03-11T04:44:22.825Z,11.35
2018-03-11T04:46:51.149Z,11.29
2018-03-11T04:49:19.438Z,11.31
2018-03-11T04:51:47.732Z,11.35
2018-03-11T04:54:15.984Z,11.52
2018-03-11T04:56:44.272Z,11.61
2018-03-11T04:59:12.562Z,11.51
2018-03-11T05:01:41.368Z,11.43
2018-03-11T05:04:09.681Z,11.37
2018-03-11T05:06:37.970Z,11.41
2018-03-11T05:09:06.248Z,11.41
2018-03-11T05:11:34.529Z,11.41
2018-03-11T05:14:02.826Z,11.40
2018-03-11T05:16:31.084Z,11.46
2018-03-11T05:18:59.560Z,11.47
2018-03-11T05:21:27.839Z,11.46
2018-03-11T05:23:56.123Z,11.47
2018-03-11T05:26:24.411Z,11.46
2018-03-11T05:28:52.721Z,11.53
2018-03-11T05:31:20.987Z,11.51
2018-03-11T05:33:49.304Z,11.44
2018-03-11T05:36:17.568Z,11.42
2018-03-11T05:38:45.858Z,11.42
2018-03-11T05:41:14.123Z,11.44
2018-03-11T05:43:42.443Z,11.38
2018-03-11T05:46:10.716Z,11.36
2018-03-11T05:48:38.995Z,11.21
2018-03-11T05:51:07.269Z,11.08
2018-03-11T05:53:35.561Z,11.03
2018-03-11T05:56:03.816Z,11.02
2018-03-11T05:58:32.089Z,11.16
2018-03-11T06:01:00.376Z,11.27
2018-03-11T06:03:28.679Z,11.34
2018-03-11T06:05:56.950Z,11.45
2018-03-11T06:08:25.220Z,11.43
2018-03-11T06:10:53.480Z,11.40
2018-03-11T06:13:22.127Z,11.56
2018-03-11T06:15:50.425Z,11.66
2018-03-11T06:18:18.753Z,11.66
2018-03-11T06:20:46.996Z,11.70
2018-03-11T06:23:16.191Z,11.89
2018-03-11T06:25:44.476Z,11.99
2018-03-11T06:28:12.842Z,11.85
2018-03-11T06:30:41.130Z,12.12
2018-03-11T06:33:09.408Z,12.20
2018-03-11T06:35:37.755Z,12.23
2018-03-11T06:38:06.033Z,12.27
2018-03-11T06:40:34.332Z,12.31
2018-03-11T06:43:02.662Z,12.29
2018-03-11T06:45:30.961Z,12.32
2018-03-11T06:47:59.272Z,12.35
2018-03-11T06:50:27.540Z,12.36
2018-03-11T06:52:55.824Z,12.41
2018-03-11T06:55:24.479Z,12.50
2018-03-11T06:57:52.752Z,12.56
2018-03-11T07:00:21.056Z,12.66
2018-03-11T07:02:49.329Z,12.72
2018-03-11T07:05:17.614Z,12.76
2018-03-11T07:07:45.889Z,12.78
2018-03-11T07:10:14.186Z,12.74
2018-03-11T07:12:42.461Z,12.66
2018-03-11T07:15:10.756Z,12.55
2018-03-11T07:17:39.070Z,12.55
2018-03-11T07:20:07.344Z,12.55
2018-03-11T07:22:35.621Z,12.50
2018-03-11T07:25:04.811Z,12.35
2018-03-11T07:27:33.096Z,12.38
2018-03-11T07:30:01.383Z,12.32
2018-03-11T07:32:30.600Z,12.21
2018-03-11T07:34:58.880Z,12.10
2018-03-11T07:37:27.181Z,12.04
2018-03-11T07:39:55.512Z,12.09
2018-03-11T07:42:23.780Z,12.19
2018-03-11T07:44:52.045Z,12.26
2018-03-11T07:47:20.344Z,12.34
2018-03-11T07:49:48.620Z,12.18
2018-03-11T07:52:16.912Z,12.11
2018-03-11T07:54:45.199Z,12.20
2018-03-11T07:57:13.492Z,12.27
2018-03-11T07:59:41.786Z,12.30
2018-03-11T08:02:10.071Z,12.44
2018-03-11T08:04:38.360Z,12.52
2018-03-11T08:07:06.662Z,12.38
2018-03-11T08:09:34.935Z,12.32
2018-03-11T08:12:03.248Z,12.53
2018-03-11T08:14:31.509Z,12.50
2018-03-11T08:16:59.903Z,12.44
2018-03-11T08:19:28.191Z,12.51
2018-03-11T08:21:56.497Z,12.59
2018-03-11T08:24:24.766Z,12.72
2018-03-11T08:26:53.065Z,12.84
2018-03-11T08:29:21.323Z,12.94
2018-03-11T08:31:49.807Z,13.04
2018-03-11T08:34:18.066Z,13.07
2018-03-11T08:36:46.340Z,13.13
2018-03-11T08:39:14.630Z,13.13
2018-03-11T08:41:42.899Z,13.11
2018-03-11T08:44:11.196Z,13.11
2018-03-11T08:46:39.456Z,13.08
2018-03-11T08:49:07.766Z,13.14
2018-03-11T08:51:36.043Z,13.18
2018-03-11T08:54:05.392Z,13.22
2018-03-11T08:56:33.668Z,13.32
2018-03-11T08:59:01.955Z,13.29
2018-03-11T09:01:30.244Z,13.24
2018-03-11T09:03:58.575Z,13.08
2018-03-11T09:06:26.848Z,13.13
2018-03-11T09:08:55.189Z,13.21
2018-03-11T09:11:23.485Z,13.29
2018-03-11T09:13:51.795Z,13.38
2018-03-11T09:16:20.524Z,13.45
2018-03-11T09:18:49.664Z,13.48
2018-03-11T09:21:17.980Z,13.58
2018-03-11T09:23:46.376Z,13.60
2018-03-11T09:26:14.637Z,13.63
2018-03-11T09:28:42.929Z,13.71
2018-03-11T09:31:11.270Z,13.70
2018-03-11T09:33:41.486Z,13.61
2018-03-11T09:36:09.799Z,13.57
2018-03-11T09:38:38.096Z,13.53
2018-03-11T09:41:06.419Z,13.62
2018-03-11T09:43:34.744Z,13.79
2018-03-11T09:46:03.019Z,13.90
2018-03-11T09:48:31.300Z,13.94
2018-03-11T09:50:59.602Z,14.01
2018-03-11T09:53:27.868Z,13.99
2018-03-11T09:55:56.168Z,14.03
2018-03-11T09:58:24.872Z,14.01
2018-03-11T10:00:53.791Z,13.95
2018-03-11T10:03:22.068Z,14.03
2018-03-11T10:05:50.367Z,14.08
2018-03-11T10:08:18.629Z,14.09
2018-03-11T10:10:46.934Z,14.10
2018-03-11T10:13:15.208Z,14.09
2018-03-11T10:15:43.495Z,14.15
2018-03-11T10:18:11.786Z,14.18
2018-03-11T10:20:40.160Z,14.17
2018-03-11T10:23:08.439Z,14.15
2018-03-11T10:25:36.771Z,14.13
2018-03-11T10:28:05.041Z,14.11
2018-03-11T10:30:33.347Z,14.17
2018-03-11T10:33:01.682Z,14.14
2018-03-11T10:35:29.960Z,14.09
2018-03-11T10:37:58.267Z,14.07
2018-03-11T10:40:26.541Z,14.07
2018-03-11T10:42:54.849Z,14.12
2018-03-11T10:45:23.146Z,14.08
2018-03-11T10:47:51.425Z,14.11
2018-03-11T10:50:19.698Z,14.09
2018-03-11T10:52:48.001Z,14.09
2018-03-11T10:55:16.300Z,14.16
2018-03-11T10:57:44.623Z,14.20
2018-03-11T11:00:13.228Z,14.18
2018-03-11T11:02:41.520Z,14.25
2018-03-11T11:05:09.812Z,14.27
2018-03-11T11:07:38.971Z,14.21
2018-03-11T11:10:07.249Z,14.08
2018-03-11T11:12:35.564Z,14.03
2018-03-11T11:15:03.841Z,13.92
2018-03-11T11:17:32.137Z,14.07
2018-03-11T11:20:00.418Z,13.99
2018-03-11T11:22:28.712Z,13.95
2018-03-11T11:24:57.017Z,13.97
2018-03-11T11:27:25.380Z,14.10
2018-03-11T11:29:53.636Z,14.06
2018-03-11T11:32:21.938Z,14.04
2018-03-11T11:34:50.198Z,13.98
2018-03-11T11:37:18.521Z,13.93
2018-03-11T11:39:46.808Z,13.88
2018-03-11T11:42:15.079Z,13.78
2018-03-11T11:44:43.383Z,13.77
2018-03-11T11:47:11.680Z,13.89
2018-03-11T11:49:40.050Z,14.04
2018-03-11T11:52:08.367Z,14.09
2018-03-11T11:54:36.695Z,14.14
2018-03-11T11:57:05.763Z,14.14
2018-03-11T11:59:34.096Z,14.12
2018-03-11T12:02:02.356Z,14.11
2018-03-11T12:04:30.724Z,14.18
2018-03-11T12:06:59.016Z,14.21
2018-03-11T12:09:27.312Z,14.28
2018-03-11T12:11:55.601Z,14.39
2018-03-11T12:14:23.936Z,14.45
2018-03-11T12:16:52.331Z,14.52
2018-03-11T12:19:20.698Z,14.61
2018-03-11T12:21:48.969Z,14.71
2018-03-11T12:24:17.257Z,14.78
2018-03-11T12:26:45.543Z,14.85
2018-03-11T12:29:13.944Z,14.89
2018-03-11T12:31:42.263Z,14.92
2018-03-11T12:34:10.586Z,14.91
2018-03-11T12:36:38.887Z,14.94
2018-03-11T12:39:07.179Z,14.99
2018-03-11T12:41:35.560Z,15.01
2018-03-11T12:44:05.068Z,15.16
2018-03-11T12:46:33.388Z,15.36
2018-03-11T12:49:01.646Z,15.53
2018-03-11T12:51:30.572Z,15.68
2018-03-11T12:53:58.828Z,15.62
2018-03-11T12:56:27.155Z,15.75
2018-03-11T12:58:55.399Z,15.88
2018-03-11T13:01:23.871Z,15.76
2018-03-11T13:03:52.140Z,15.83
2018-03-11T13:06:20.440Z,15.93
2018-03-11T13:08:48.757Z,16.08
2018-03-11T13:11:17.083Z,16.10
2018-03-11T13:13:45.360Z,16.08
2018-03-11T13:16:13.661Z,16.19
2018-03-11T13:18:41.923Z,16.16
2018-03-11T13:21:11.051Z,16.11
2018-03-11T13:23:40.567Z,16.13
2018-03-11T13:26:08.844Z,16.07
2018-03-11T13:28:46.799Z,16.00
2018-03-11T13:31:15.558Z,16.03
2018-03-11T13:33:55.635Z,15.70
2018-03-11T13:36:24.009Z,16.02
2018-03-11T13:39:04.015Z,15.74
2018-03-11T13:41:32.339Z,15.75
2018-03-11T13:44:01.406Z,15.84
2018-03-11T13:46:41.397Z,15.91
2018-03-11T13:49:09.683Z,15.95
2018-03-11T13:51:49.646Z,16.03
2018-03-11T13:54:17.918Z,16.01
2018-03-11T13:56:46.187Z,16.08
2018-03-11T13:59:14.504Z,16.19
2018-03-11T14:01:42.778Z,16.30
2018-03-11T14:04:11.092Z,16.19
2018-03-11T14:06:39.400Z,16.24
2018-03-11T14:09:07.677Z,16.13
2018-03-11T14:11:35.940Z,16.19
2018-03-11T14:14:04.250Z,16.22
2018-03-11T14:16:32.619Z,16.30
2018-03-11T14:19:00.935Z,16.30
2018-03-11T14:21:29.220Z,16.30
2018-03-11T14:23:58.248Z,16.37
2018-03-11T14:26:26.892Z,16.33
2018-03-11T14:28:55.189Z,16.36
2018-03-11T14:31:23.472Z,16.41
2018-03-11T14:33:51.775Z,16.50
2018-03-11T14:36:20.679Z,16.47
2018-03-11T14:38:48.960Z,16.53
2018-03-11T14:41:17.253Z,16.43
2018-03-11T14:43:45.511Z,16.42
2018-03-11T14:46:13.878Z,16.42
2018-03-11T14:48:42.690Z,16.41
2018-03-11T14:51:16.904Z,16.31
2018-03-11T14:53:45.177Z,16.41
2018-03-11T14:56:13.464Z,16.35
2018-03-11T14:58:41.833Z,16.28
2018-03-11T15:01:10.174Z,16.24
2018-03-11T15:03:38.444Z,16.18
2018-03-11T15:06:06.792Z,16.13
2018-03-11T15:08:35.112Z,16.04
2018-03-11T15:11:03.402Z,16.04
2018-03-11T15:13:31.715Z,16.11
2018-03-11T15:15:59.999Z,16.01
2018-03-11T15:18:28.300Z,16.00
2018-03-11T15:20:56.584Z,15.98
2018-03-11T15:23:24.908Z,15.92
2018-03-11T15:25:53.184Z,15.95
2018-03-11T15:28:25.167Z,15.97
2018-03-11T15:30:53.536Z,15.99
2018-03-11T15:33:21.833Z,16.01
2018-03-11T15:35:50.206Z,16.04
2018-03-11T15:38:18.502Z,16.02
2018-03-11T15:40:46.869Z,15.97
2018-03-11T15:43:15.136Z,15.96
2018-03-11T15:45:43.415Z,16.00
2018-03-11T15:48:11.809Z,15.91
2018-03-11T15:50:40.148Z,15.98
2018-03-11T15:53:08.471Z,15.86
2018-03-11T15:55:36.727Z,15.92
2018-03-11T15:58:05.521Z,15.93
2018-03-11T16:00:33.787Z,15.92
2018-03-11T16:03:02.080Z,15.87
2018-03-11T16:05:30.345Z,15.89
2018-03-11T16:07:58.638Z,15.87
2018-03-11T16:10:26.934Z,15.86
2018-03-11T16:12:55.245Z,15.71
2018-03-11T16:15:23.504Z,15.73
2018-03-11T16:17:52.455Z,15.71
2018-03-11T16:20:20.853Z,15.68
2018-03-11T16:22:49.183Z,15.62
2018-03-11T16:25:17.462Z,15.54
2018-03-11T16:27:45.791Z,15.60
2018-03-11T16:30:14.107Z,15.59
2018-03-11T16:32:43.752Z,15.65
2018-03-11T16:35:12.068Z,15.67
2018-03-11T16:37:40.389Z,15.66
2018-03-11T16:40:09.181Z,15.61
2018-03-11T16:42:37.469Z,15.62
2018-03-11T16:45:05.785Z,15.49
2018-03-11T16:47:34.085Z,15.56
2018-03-11T16:50:02.377Z,15.56
2018-03-11T16:52:30.665Z,15.58
2018-03-11T16:55:00.049Z,15.58
2018-03-11T16:57:28.365Z,15.58
2018-03-11T16:59:56.684Z,15.43
2018-03-11T17:02:25.583Z,15.45
2018-03-11T17:04:53.894Z,15.43
2018-03-11T17:07:22.204Z,15.42
2018-03-11T17:09:50.598Z,15.35
2018-03-11T17:12:18.920Z,15.33
2018-03-11T17:14:47.209Z,15.27
2018-03-11T17:17:15.492Z,15.23
2018-03-11T17:19:43.859Z,15.14
2018-03-11T17:22:13.060Z,15.15
2018-03-11T17:24:41.335Z,15.05
2018-03-11T17:27:09.649Z,14.95
2018-03-11T17:29:38.902Z,15.00
2018-03-11T17:32:07.198Z,14.91
2018-03-11T17:34:35.536Z,14.89
2018-03-11T17:37:03.862Z,14.91
2018-03-11T17:39:32.623Z,14.90
2018-03-11T17:42:00.930Z,14.96
2018-03-11T17:44:29.211Z,14.93
2018-03-11T17:46:57.582Z,14.92
2018-03-11T17:49:25.848Z,14.94
2018-03-11T17:51:54.158Z,14.92
2018-03-11T17:54:22.503Z,14.87
2018-03-11T17:56:50.844Z,14.83
2018-03-11T17:59:19.155Z,14.81
2018-03-11T18:01:47.471Z,14.51
2018-03-11T18:04:15.799Z,14.89
2018-03-11T18:06:44.097Z,14.96
2018-03-11T18:09:12.485Z,14.91
2018-03-11T18:11:40.963Z,14.90
2018-03-11T18:14:09.446Z,14.88
2018-03-11T18:16:37.808Z,14.85
2018-03-11T18:19:06.322Z,14.80
2018-03-11T18:21:34.614Z,14.83
2018-03-11T18:24:03.047Z,14.77
2018-03-11T18:26:31.343Z,14.83
2018-03-11T18:28:59.632Z,14.79
2018-03-11T18:31:27.914Z,14.76
2018-03-11T18:33:56.224Z,14.71
2018-03-11T18:36:24.513Z,14.72
2018-03-11T18:38:56.681Z,14.76
2018-03-11T18:44:21.845Z,14.83
2018-03-11T18:46:50.151Z,14.72
2018-03-11T18:49:18.474Z,14.71
2018-03-11T18:51:47.097Z,14.67
2018-03-11T18:54:15.397Z,14.61
2018-03-11T18:56:43.791Z,14.54
2018-03-11T18:59:12.108Z,14.34
2018-03-11T19:01:40.964Z,14.29
2018-03-11T19:04:10.075Z,14.37
2018-03-11T19:06:38.450Z,14.47
2018-03-11T19:09:06.747Z,14.47
2018-03-11T19:11:35.033Z,14.43
2018-03-11T19:14:03.319Z,14.36
2018-03-11T19:16:31.756Z,14.30
2018-03-11T19:19:00.112Z,14.28
2018-03-11T19:21:28.465Z,14.28
2018-03-11T19:23:57.001Z,14.27
2018-03-11T19:26:25.415Z,14.28
2018-03-11T19:28:53.715Z,14.30
2018-03-11T19:31:21.995Z,14.30
2018-03-11T19:33:50.318Z,14.30
2018-03-11T19:36:18.739Z,14.28
2018-03-11T19:38:47.064Z,14.29
2018-03-11T19:41:16.068Z,14.28
2018-03-11T19:43:44.396Z,14.24
2018-03-11T19:46:12.740Z,14.24
2018-03-11T19:48:41.127Z,14.22
2018-03-11T19:51:09.624Z,14.19
2018-03-11T19:53:37.871Z,14.18
2018-03-11T19:56:06.193Z,14.18
2018-03-11T19:58:34.521Z,14.18
2018-03-11T20:01:02.807Z,14.11
2018-03-11T20:03:32.005Z,14.11
2018-03-11T20:06:00.362Z,14.01
2018-03-11T20:08:28.592Z,13.99
2018-03-11T20:10:56.916Z,14.04
2018-03-11T20:13:25.178Z,14.03
2018-03-11T20:15:53.460Z,13.96
2018-03-11T20:18:21.788Z,13.97
2018-03-11T20:20:50.096Z,13.91
2018-03-11T20:23:18.377Z,13.84
2018-03-11T20:25:46.673Z,13.85
2018-03-11T20:28:14.955Z,13.88
2018-03-11T20:30:43.324Z,13.92
2018-03-11T20:33:11.635Z,13.93
2018-03-11T20:35:40.927Z,13.87
2018-03-11T20:38:09.277Z,13.84
2018-03-11T20:40:37.612Z,13.81
2018-03-11T20:43:06.018Z,13.70
2018-03-11T20:45:34.432Z,13.74
2018-03-11T20:48:02.856Z,13.68
2018-03-11T20:50:31.228Z,13.72
2018-03-11T20:52:59.548Z,13.59
2018-03-11T20:55:27.857Z,13.50
2018-03-11T20:57:56.217Z,13.38
2018-03-11T21:00:24.510Z,13.47
2018-03-11T21:02:52.835Z,13.61
2018-03-11T21:05:21.152Z,13.66
2018-03-11T21:07:49.572Z,13.65
2018-03-11T21:10:17.858Z,13.66
2018-03-11T21:12:46.184Z,13.77
2018-03-11T21:15:14.521Z,13.73
2018-03-11T21:17:42.812Z,13.54
2018-03-11T21:20:11.825Z,13.52
2018-03-11T21:22:40.137Z,13.58
2018-03-11T21:25:08.438Z,13.61
2018-03-11T21:27:36.735Z,13.72
2018-03-11T21:30:05.401Z,13.74
2018-03-11T21:32:33.686Z,13.86
2018-03-11T21:35:02.022Z,13.90
2018-03-11T21:37:30.378Z,13.79
2018-03-11T21:39:58.733Z,13.68
2018-03-11T21:42:27.035Z,13.59
2018-03-11T21:44:55.315Z,13.53
2018-03-11T21:47:23.636Z,13.51
2018-03-11T21:49:51.940Z,13.46
2018-03-11T21:52:20.217Z,13.42
2018-03-11T21:54:48.514Z,13.38
2018-03-11T21:57:16.836Z,13.36
2018-03-11T21:59:45.170Z,13.35
2018-03-11T22:02:14.257Z,13.36
2018-03-11T22:04:42.577Z,13.36
2018-03-11T22:07:10.873Z,13.33
2018-03-11T22:09:39.173Z,13.31
2018-03-11T22:12:07.470Z,13.30
2018-03-11T22:14:35.763Z,13.30
2018-03-11T22:17:04.875Z,13.26
2018-03-11T22:19:33.234Z,13.29
2018-03-11T22:22:01.498Z,13.26
2018-03-11T22:24:29.797Z,13.24
2018-03-11T22:26:58.090Z,13.24
2018-03-11T22:29:26.422Z,13.18
2018-03-11T22:31:54.722Z,13.18
2018-03-11T22:34:23.185Z,13.20
2018-03-11T22:36:51.491Z,13.19
2018-03-11T22:39:19.811Z,13.16
2018-03-11T22:41:48.085Z,13.18
2018-03-11T22:44:16.392Z,13.16
2018-03-11T22:46:44.711Z,13.12
2018-03-11T22:49:13.017Z,13.13
2018-03-11T22:51:41.369Z,13.15
2018-03-11T22:54:09.656Z,13.04
2018-03-11T22:56:37.951Z,13.06
2018-03-11T22:59:06.238Z,12.96
2018-03-11T23:01:34.560Z,12.90
2018-03-11T23:04:02.821Z,12.86
2018-03-11T23:06:31.124Z,12.90
2018-03-11T23:08:59.525Z,12.90
2018-03-11T23:11:27.844Z,12.91
2018-03-11T23:13:56.128Z,12.89
2018-03-11T23:16:24.421Z,12.91
2018-03-11T23:19:04.555Z,12.92
2018-03-11T23:21:32.872Z,12.94
2018-03-11T23:24:01.636Z,12.89
2018-03-11T23:26:29.968Z,12.85
2018-03-11T23:28:59.079Z,12.83
2018-03-11T23:31:27.385Z,12.82
2018-03-11T23:33:55.676Z,12.84
2018-03-11T23:36:24.898Z,12.80
2018-03-11T23:38:53.157Z,12.83
2018-03-11T23:41:21.456Z,12.86
2018-03-11T23:43:49.735Z,12.83
2018-03-11T23:46:18.045Z,12.82
2018-03-11T23:48:46.305Z,12.72
2018-03-11T23:51:14.682Z,12.74
2018-03-11T23:53:42.989Z,12.76
2018-03-11T23:56:11.400Z,12.76
2018-03-11T23:58:39.748Z,12.74
